Sandakan Airport
WBKS : now visible

Airfield :











YOU CAN JOIN US ON...

 
LOGIN :

Register | Disclaimer

   EN    FR    IT 

 









Legend :    VFR   Marginal VFR   IFR   Intensive IFR   Very Intensive IFR
Visi :
Ceiling :
>= 8 km
>= 3000ft
5 to 8 km
1000 to 3000 ft
1500m to 5 km
500 to 1000 ft
800 to 1500m
200 to 500 ft
< 800m
< 200 ft
Symbols :   Thunderstorms  Fog  Heavy snow  Heavy precipitations  Wind > 20 kt






- Airport Elevation : 46 ft
- IATA code : SDK


WBKS - Sandakan

CURRENT METAR :
  • 191300Z 04006KT 9999 FEW015 FEW017CB BKN280 28/24 Q1009

EXPIRED METARs :
  • 191200Z 03006KT 9999 SCT015 FEW017CB BKN280 28/25 Q1009
  • 191100Z 02006KT 9999 FEW015 FEW017CB BKN280 29/25 Q1008

TAF TAF WBKS
Valid from the 19 at 12:00 until the 20 at 12:00 UTC


191100Z 1912/2012 32005KT 9999 FEW015



MET'MAP, your aeronautical weather chart ! - Copyright ORBIFLY December 2007 - Disclaimer

ORBIFLY MET'MAP TEAM :

Programming & Development : Alexandra Zaïnal
Concept & Development : Baudouin d'Aumeries
Co-Development & Prog : Marc-Olivier Méhu
Technical & hardware support : Manuel Goepfert

Contact : metmap@orbifly.com




SOURCES & CREDITS :

   NOAA       Earth
Advisory